createdAt,value
2023-02-13T00:00:48.676Z,7.78
2023-02-13T00:05:45.035Z,7.80
2023-02-13T00:10:41.432Z,7.65
2023-02-13T00:15:37.875Z,8.13
2023-02-13T00:20:34.323Z,7.30
2023-02-13T00:25:30.708Z,7.05
2023-02-13T00:30:27.144Z,6.45
2023-02-13T00:35:23.482Z,7.15
2023-02-13T00:40:19.976Z,7.00
2023-02-13T00:45:16.350Z,6.65
2023-02-13T00:50:12.752Z,5.80
2023-02-13T00:55:09.171Z,6.80
2023-02-13T01:00:06.180Z,6.72
2023-02-13T01:05:02.915Z,6.65
2023-02-13T01:09:59.245Z,6.60
2023-02-13T01:14:56.060Z,7.32
2023-02-13T01:19:52.511Z,7.40
2023-02-13T01:24:48.878Z,6.72
2023-02-13T01:29:45.261Z,7.57
2023-02-13T01:34:41.692Z,7.30
2023-02-13T01:39:38.182Z,7.30
2023-02-13T01:44:58.047Z,7.32
2023-02-13T01:50:10.104Z,7.45
2023-02-13T01:55:07.679Z,7.32
2023-02-13T02:00:11.805Z,7.13
2023-02-13T02:05:08.967Z,7.65
2023-02-13T02:10:10.200Z,8.07
2023-02-13T02:15:07.845Z,7.90
2023-02-13T02:20:10.587Z,5.78
2023-02-13T02:25:26.124Z,7.53
2023-02-13T02:30:41.346Z,6.70
2023-02-13T02:35:48.575Z,6.88
2023-02-13T02:41:10.497Z,6.40
2023-02-13T02:46:13.329Z,6.78
2023-02-13T02:51:35.451Z,7.15
2023-02-13T02:56:40.755Z,7.13
2023-02-13T03:01:57.327Z,7.53
2023-02-13T03:06:59.440Z,8.32
2023-02-13T03:12:15.236Z,8.18
2023-02-13T03:17:33.783Z,7.57
2023-02-13T03:28:19.319Z,9.60
2023-02-13T03:33:44.139Z,8.93
2023-02-13T03:39:05.766Z,9.13
2023-02-13T03:44:41.539Z,10.05
2023-02-13T03:50:03.240Z,9.75
2023-02-13T03:55:31.883Z,9.52
2023-02-13T04:00:35.112Z,9.40
2023-02-13T04:05:36.532Z,10.32
2023-02-13T04:10:37.144Z,11.15
2023-02-13T04:15:46.220Z,9.30
2023-02-13T04:20:43.198Z,8.95
2023-02-13T04:25:44.069Z,8.93
2023-02-13T04:30:40.617Z,8.57
2023-02-13T04:35:37.846Z,8.88
2023-02-13T04:40:34.240Z,9.50
2023-02-13T04:45:30.720Z,8.75
2023-02-13T04:50:27.191Z,9.02
2023-02-13T04:55:25.348Z,9.02
2023-02-13T05:00:26.466Z,9.27
2023-02-13T05:05:22.918Z,8.38
2023-02-13T05:10:19.412Z,7.38
2023-02-13T05:15:15.720Z,8.20
2023-02-13T05:20:14.026Z,8.23
2023-02-13T05:25:10.428Z,7.90
2023-02-13T05:30:07.409Z,7.30
2023-02-13T05:35:04.918Z,7.78
2023-02-13T05:40:01.292Z,7.80
2023-02-13T05:44:57.714Z,7.22
2023-02-13T05:49:54.100Z,9.32
2023-02-13T05:54:50.555Z,7.82
2023-02-13T05:59:46.863Z,6.70
2023-02-13T06:04:43.272Z,7.25
2023-02-13T06:09:39.683Z,7.55
2023-02-13T06:14:36.001Z,7.13
2023-02-13T06:19:32.384Z,7.68
2023-02-13T06:24:28.736Z,7.32
2023-02-13T06:29:25.127Z,8.13
2023-02-13T06:34:21.443Z,7.55
2023-02-13T06:39:17.794Z,6.93
2023-02-13T06:44:14.233Z,6.05
2023-02-13T06:49:10.695Z,8.30
2023-02-13T06:54:07.054Z,6.95
2023-02-13T06:59:03.409Z,7.50
2023-02-13T07:03:59.776Z,7.47
2023-02-13T07:08:56.485Z,7.53
2023-02-13T07:13:53.176Z,7.18
2023-02-13T07:18:49.612Z,7.18
2023-02-13T07:23:45.923Z,6.63
2023-02-13T07:28:42.343Z,7.85
2023-02-13T07:33:38.767Z,7.10
2023-02-13T07:38:35.207Z,6.13
2023-02-13T07:43:31.666Z,6.03
2023-02-13T07:48:28.665Z,6.82
2023-02-13T07:53:24.983Z,6.03
2023-02-13T07:58:21.368Z,5.80
2023-02-13T08:03:17.683Z,5.32
2023-02-13T08:08:13.982Z,4.80
2023-02-13T08:13:12.968Z,4.40
2023-02-13T08:18:09.806Z,4.75
2023-02-13T08:23:07.958Z,4.00
2023-02-13T08:28:04.833Z,4.13
2023-02-13T08:33:01.354Z,4.47
2023-02-13T08:38:01.960Z,4.55
2023-02-13T08:43:05.891Z,4.57
2023-02-13T08:48:04.177Z,4.10
2023-02-13T08:53:00.736Z,4.57
2023-02-13T08:58:03.052Z,4.53
2023-02-13T09:03:03.995Z,4.28
2023-02-13T09:08:02.772Z,3.95
2023-02-13T09:12:59.375Z,4.38
2023-02-13T09:17:55.961Z,4.43
2023-02-13T09:22:54.553Z,4.15
2023-02-13T09:32:47.215Z,4.63
2023-02-13T09:37:45.530Z,4.20
2023-02-13T09:42:43.624Z,3.45
2023-02-13T09:47:42.792Z,4.50
2023-02-13T09:52:40.044Z,3.92
2023-02-13T09:57:42.861Z,3.42
2023-02-13T10:02:47.644Z,3.78
2023-02-13T10:07:53.209Z,4.05
2023-02-13T10:13:07.399Z,4.32
2023-02-13T10:18:09.846Z,3.85
2023-02-13T10:23:22.172Z,4.82
2023-02-13T10:28:30.141Z,3.80
2023-02-13T10:33:32.656Z,3.95
2023-02-13T10:38:34.426Z,3.83
2023-02-13T10:43:39.508Z,3.75
2023-02-13T10:48:52.200Z,4.45
2023-02-13T10:54:06.971Z,4.15
2023-02-13T10:59:23.753Z,4.15
2023-02-13T11:04:20.551Z,3.95
2023-02-13T11:09:17.324Z,4.00
2023-02-13T11:14:21.344Z,5.10
2023-02-13T11:19:28.547Z,4.18
2023-02-13T11:24:27.069Z,4.35
2023-02-13T11:39:20.592Z,4.30
2023-02-13T11:44:26.274Z,3.60
2023-02-13T11:49:38.736Z,3.70
2023-02-13T11:54:46.122Z,3.58
2023-02-13T11:59:44.523Z,3.97
2023-02-13T12:04:41.412Z,3.22
2023-02-13T12:09:40.538Z,4.03
2023-02-13T12:14:44.920Z,3.97
2023-02-13T12:19:43.774Z,3.38
2023-02-13T12:24:52.382Z,3.78
2023-02-13T12:29:56.003Z,3.85
2023-02-13T12:35:14.720Z,3.63
2023-02-13T12:40:50.201Z,3.42
2023-02-13T12:46:04.608Z,3.50
2023-02-13T12:51:22.698Z,3.25
2023-02-13T12:56:34.137Z,3.28
2023-02-13T13:01:56.889Z,3.58
2023-02-13T13:07:19.483Z,2.90
2023-02-13T13:12:26.950Z,2.85
2023-02-13T13:17:37.140Z,3.23
2023-02-13T13:22:45.863Z,3.50
2023-02-13T13:27:50.038Z,3.05
2023-02-13T13:32:51.984Z,3.25
2023-02-13T13:38:25.378Z,3.03
2023-02-13T13:43:28.616Z,3.40
2023-02-13T13:48:34.921Z,3.00
2023-02-13T13:53:31.489Z,3.13
2023-02-13T13:58:45.602Z,3.00
2023-02-13T14:03:44.376Z,3.05
2023-02-13T14:08:40.684Z,3.13
2023-02-13T14:13:39.994Z,2.70
2023-02-13T14:18:38.446Z,3.13
2023-02-13T14:28:49.154Z,2.92
2023-02-13T14:33:46.525Z,2.85
2023-02-13T14:38:43.099Z,3.28
2023-02-13T14:43:51.122Z,2.65
2023-02-13T14:48:58.877Z,3.17
2023-02-13T14:54:04.739Z,3.23
2023-02-13T14:59:11.606Z,2.92
2023-02-13T15:04:16.996Z,2.88
2023-02-13T15:09:23.989Z,2.92
2023-02-13T15:14:36.372Z,2.78
2023-02-13T15:19:36.827Z,2.75
2023-02-13T15:24:53.910Z,2.78
2023-02-13T15:30:02.099Z,2.45
2023-02-13T15:34:59.195Z,3.10
2023-02-13T15:39:55.663Z,2.95
2023-02-13T15:44:58.134Z,2.83
2023-02-13T15:49:54.702Z,2.78
2023-02-13T15:54:55.706Z,2.75
2023-02-13T15:59:54.365Z,3.03
2023-02-13T16:04:54.411Z,3.17
2023-02-13T16:09:52.334Z,3.15
2023-02-13T16:14:57.472Z,3.17
2023-02-13T16:20:01.656Z,2.80
2023-02-13T16:25:21.345Z,3.00
2023-02-13T16:30:33.095Z,3.40
2023-02-13T16:35:33.362Z,4.28
2023-02-13T16:40:41.954Z,3.85
2023-02-13T16:50:34.721Z,4.15
2023-02-13T16:55:31.767Z,4.53
2023-02-13T17:00:28.167Z,4.10
2023-02-13T17:05:27.836Z,5.00
2023-02-13T17:10:35.270Z,5.45
2023-02-13T17:15:32.678Z,4.70
2023-02-13T17:20:31.402Z,5.93
2023-02-13T17:30:30.125Z,5.97
2023-02-13T17:35:26.739Z,5.75
2023-02-13T17:40:25.445Z,5.30
2023-02-13T17:45:24.908Z,6.22
2023-02-13T17:50:21.560Z,6.20
2023-02-13T17:55:24.408Z,5.82
2023-02-13T18:00:21.454Z,6.80
2023-02-13T18:05:18.851Z,7.93
2023-02-13T18:10:16.915Z,7.07
2023-02-13T18:15:13.757Z,6.40
2023-02-13T18:20:15.964Z,6.68
2023-02-13T18:25:13.448Z,6.15
2023-02-13T18:30:12.925Z,7.13
2023-02-13T18:35:09.854Z,7.03
2023-02-13T18:40:08.450Z,8.48
2023-02-13T18:45:05.040Z,8.55
2023-02-13T18:50:01.466Z,9.65
2023-02-13T18:54:57.863Z,8.55
2023-02-13T18:59:54.240Z,8.52
2023-02-13T19:04:50.670Z,7.78
2023-02-13T19:09:47.620Z,8.07
2023-02-13T19:14:44.214Z,8.00
2023-02-13T19:19:40.590Z,8.75
2023-02-13T19:24:36.968Z,9.80
2023-02-13T19:29:33.341Z,8.63
2023-02-13T19:34:29.807Z,8.82
2023-02-13T19:39:26.150Z,8.82
2023-02-13T19:44:22.656Z,8.85
2023-02-13T19:49:20.989Z,9.63
2023-02-13T19:54:17.363Z,9.32
2023-02-13T19:59:14.211Z,9.10
2023-02-13T20:04:11.718Z,9.07
2023-02-13T20:09:11.925Z,9.20
2023-02-13T20:14:14.415Z,9.68
2023-02-13T20:19:13.618Z,9.48
2023-02-13T20:24:11.069Z,9.05
2023-02-13T20:29:08.853Z,10.50
2023-02-13T20:34:06.803Z,9.67
2023-02-13T20:39:06.553Z,9.70
2023-02-13T20:44:06.912Z,8.93
2023-02-13T20:49:04.046Z,8.05
2023-02-13T20:54:00.549Z,9.23
2023-02-13T20:58:58.898Z,9.07
2023-02-13T21:03:56.050Z,8.82
2023-02-13T21:08:52.965Z,9.43
2023-02-13T21:13:49.773Z,10.32
2023-02-13T21:18:51.811Z,10.07
2023-02-13T21:23:51.943Z,9.90
2023-02-13T21:28:49.353Z,10.85
2023-02-13T21:33:46.078Z,10.88
2023-02-13T21:38:42.488Z,10.90
2023-02-13T21:43:39.814Z,9.75
2023-02-13T21:48:37.033Z,9.02
2023-02-13T21:53:33.607Z,8.77
2023-02-13T21:58:33.470Z,11.18
2023-02-13T22:03:29.892Z,10.15
2023-02-13T22:08:26.276Z,9.52
2023-02-13T22:13:23.580Z,11.07
2023-02-13T22:18:20.326Z,11.00
2023-02-13T22:23:16.676Z,10.80
2023-02-13T22:28:13.077Z,10.95
2023-02-13T22:33:09.998Z,11.30
2023-02-13T22:38:06.878Z,11.85
2023-02-13T22:43:03.916Z,12.07
2023-02-13T22:48:00.689Z,11.93
2023-02-13T22:52:57.150Z,10.40
2023-02-13T22:57:58.831Z,12.23
2023-02-13T23:02:55.172Z,10.05
2023-02-13T23:07:51.510Z,10.23
2023-02-13T23:12:50.116Z,11.43
2023-02-13T23:18:05.133Z,11.27
2023-02-13T23:23:03.180Z,11.10
2023-02-13T23:28:01.131Z,10.48
2023-02-13T23:32:59.182Z,11.05
2023-02-13T23:37:55.622Z,10.87
2023-02-13T23:42:52.341Z,10.77
2023-02-13T23:47:48.840Z,11.27
2023-02-13T23:52:45.734Z,10.02
2023-02-13T23:57:42.097Z,13.20
